CPX613 Details

Departure: Long Island Mac Arthur Airport (KISP)
Arrival: Washington Dulles International Airport (KIAD)
Route: BEADS V139 SARDI RBV HYPER7


Current Weather Information
KISP 191656Z 17007KT 10SM FEW010 FEW030 FEW250 29/24 A2998 RMK AO2 SLP152 T02890239
KIAD 191652Z 32006KT 10SM FEW050 BKN250 34/21 A3001 RMK AO2 SLP160 T03390206